Time;durP1;ratioP1;P1;durP2;ratioP2;P2;SDS_P1;SDS_P2;PMS_P1;PMS_P2;Temp;Humidity;BMP_temperature;BMP_pressure;BME280_temperature;BME280_humidity;BME280_pressure;Samples;Min_cycle;Max_cycle;Signal;HPM_P1;HPM_P2
2023/01/29 00:01:04;;;;;;;12.43;6.90;;;-0.10;99.90;;;;;;5072481;28;20024;-66
2023/01/29 00:03:29;;;;;;;11.65;7.22;;;-0.20;99.90;;;;;;5073807;28;20031;-66
2023/01/29 00:05:55;;;;;;;11.80;6.95;;;-0.20;99.90;;;;;;5072407;28;20021;-66
2023/01/29 00:08:21;;;;;;;10.07;6.57;;;-0.20;99.90;;;;;;5077017;28;20562;-66
2023/01/29 00:10:46;;;;;;;8.23;6.05;;;-0.30;99.90;;;;;;5078872;28;20060;-66
2023/01/29 00:13:12;;;;;;;8.23;6.10;;;-0.30;99.90;;;;;;5070943;28;20026;-66
2023/01/29 00:15:37;;;;;;;10.70;6.90;;;-0.30;99.90;;;;;;5071134;28;20074;-66
2023/01/29 00:18:03;;;;;;;11.60;7.38;;;-0.30;99.90;;;;;;5080154;28;20085;-66
2023/01/29 00:20:30;;;;;;;11.00;7.20;;;-0.40;99.90;;;;;;5073258;28;20021;-66
2023/01/29 00:22:55;;;;;;;8.90;6.97;;;-0.40;99.90;;;;;;5072947;28;20028;-66
2023/01/29 00:25:21;;;;;;;8.50;6.47;;;-0.40;99.90;;;;;;5080236;28;20540;-66
2023/01/29 00:27:46;;;;;;;13.90;7.30;;;-0.50;99.90;;;;;;5093147;28;20059;-66
2023/01/29 00:30:12;;;;;;;11.77;7.53;;;-0.40;99.90;;;;;;5093625;28;20032;-66
2023/01/29 00:32:39;;;;;;;12.23;7.28;;;-0.40;99.90;;;;;;5101674;28;20031;-65
2023/01/29 00:35:06;;;;;;;12.27;7.35;;;-0.40;99.90;;;;;;5078073;28;20728;-65
2023/01/29 00:37:32;;;;;;;13.27;7.57;;;-0.40;99.90;;;;;;5082634;28;20040;-67
2023/01/29 00:39:57;;;;;;;10.77;7.18;;;-0.50;99.90;;;;;;5099051;28;20031;-67
2023/01/29 00:45:09;;;;;;;12.95;7.60;;;-0.40;99.90;;;;;;5088773;28;20488;-67
2023/01/29 00:47:34;;;;;;;13.25;7.20;;;-0.40;99.90;;;;;;5093392;28;20036;-67
2023/01/29 00:50:10;;;;;;;11.85;7.72;;;-0.40;99.90;;;;;;5092424;28;20161;-67
2023/01/29 00:52:36;;;;;;;12.55;7.93;;;-0.40;99.90;;;;;;5093069;28;20043;-66
2023/01/29 00:55:04;;;;;;;12.75;8.05;;;-0.40;99.90;;;;;;5089164;28;20032;-66
2023/01/29 00:57:31;;;;;;;14.32;7.72;;;-0.40;99.90;;;;;;5096551;28;20085;-67
2023/01/29 00:59:57;;;;;;;10.73;7.75;;;-0.40;99.90;;;;;;5092260;28;20394;-66
2023/01/29 01:05:12;;;;;;;9.73;7.07;;;-0.40;99.90;;;;;;5093042;28;20039;-65
2023/01/29 01:07:41;;;;;;;12.02;7.88;;;-0.20;99.90;;;;;;5092726;28;20039;-65
2023/01/29 01:10:20;;;;;;;12.55;7.93;;;-0.30;99.90;;;;;;5092953;28;20028;-66
2023/01/29 01:12:58;;;;;;;12.27;7.72;;;-0.30;99.90;;;;;;5091636;28;20039;-65
2023/01/29 01:15:26;;;;;;;10.27;7.03;;;-0.30;99.90;;;;;;5092889;28;20100;-66
2023/01/29 01:17:54;;;;;;;15.20;7.90;;;-0.30;99.90;;;;;;5094750;28;20047;-66
2023/01/29 01:20:20;;;;;;;11.73;6.82;;;-0.30;99.90;;;;;;5092695;28;20116;-65
2023/01/29 01:22:46;;;;;;;9.55;6.85;;;-0.40;99.90;;;;;;5092148;28;20020;-66
2023/01/29 01:25:12;;;;;;;10.52;7.05;;;-0.30;99.90;;;;;;5094946;28;20121;-66
2023/01/29 01:27:40;;;;;;;8.80;6.85;;;-0.30;99.90;;;;;;5106253;28;20457;-66
2023/01/29 01:30:08;;;;;;;10.95;7.60;;;-0.20;99.90;;;;;;5086977;28;20085;-66
2023/01/29 01:32:33;;;;;;;11.13;7.00;;;-0.30;99.90;;;;;;5092746;28;20024;-66
2023/01/29 01:34:59;;;;;;;10.38;7.20;;;-0.20;99.90;;;;;;5091640;28;20107;-66
2023/01/29 01:37:24;;;;;;;10.85;7.13;;;-0.30;99.90;;;;;;5092336;28;20112;-66
2023/01/29 01:39:50;;;;;;;10.85;7.55;;;-0.40;99.90;;;;;;5091436;28;20024;-67
2023/01/29 01:42:16;;;;;;;11.27;7.15;;;-0.40;99.90;;;;;;5092680;28;20028;-66
2023/01/29 01:44:54;;;;;;;10.45;7.15;;;-0.40;99.90;;;;;;5087954;28;20028;-65
2023/01/29 01:47:36;;;;;;;11.45;6.75;;;-0.40;99.90;;;;;;5094087;28;20036;-65
2023/01/29 01:50:10;;;;;;;11.57;6.82;;;-0.40;99.90;;;;;;5090577;28;20032;-66
2023/01/29 01:52:41;;;;;;;11.57;7.10;;;-0.40;99.90;;;;;;5092043;28;20024;-66
2023/01/29 01:55:10;;;;;;;12.20;7.10;;;-0.40;99.90;;;;;;5092039;28;20020;-67
2023/01/29 01:57:36;;;;;;;13.82;7.30;;;-0.40;99.90;;;;;;5093400;28;20115;-66
2023/01/29 02:00:11;;;;;;;11.80;6.75;;;-0.40;99.90;;;;;;5090953;28;20115;-66
2023/01/29 02:10:54;;;;;;;10.75;8.00;;;-0.40;99.90;;;;;;5090954;28;20039;-67
2023/01/29 02:13:20;;;;;;;10.77;7.53;;;-0.40;99.90;;;;;;5091648;28;20028;-66
2023/01/29 02:15:49;;;;;;;9.95;7.53;;;-0.40;99.90;;;;;;5094409;28;20038;-66
2023/01/29 02:18:17;;;;;;;12.82;7.00;;;-0.30;99.90;;;;;;5096158;28;20036;-66
2023/01/29 02:20:48;;;;;;;11.27;7.40;;;-0.40;99.90;;;;;;5083515;28;20029;-66
2023/01/29 02:23:32;;;;;;;11.27;7.22;;;-0.40;99.90;;;;;;5085876;28;20077;-66
2023/01/29 02:26:19;;;;;;;12.55;7.47;;;-0.50;99.90;;;;;;5089439;28;20140;-66
2023/01/29 02:28:56;;;;;;;11.10;6.82;;;-0.50;99.90;;;;;;5094936;28;20032;-66
2023/01/29 02:31:41;;;;;;;14.90;8.48;;;-0.50;99.90;;;;;;5094119;28;20024;-67
2023/01/29 02:37:31;;;;;;;11.95;7.30;;;-0.50;99.90;;;;;;5079827;28;20039;-66
2023/01/29 02:40:29;;;;;;;11.60;7.07;;;-0.50;99.90;;;;;;5086379;28;20377;-66
2023/01/29 02:43:21;;;;;;;9.40;6.95;;;-0.50;99.90;;;;;;5086222;28;20024;-66
2023/01/29 02:46:01;;;;;;;13.23;7.57;;;-0.60;99.90;;;;;;5055345;28;20042;-66
2023/01/29 02:48:53;;;;;;;9.35;6.47;;;-0.60;99.90;;;;;;5091061;28;20031;-66
2023/01/29 02:51:33;;;;;;;10.38;7.05;;;-0.60;99.90;;;;;;5091066;28;20400;-66
2023/01/29 02:54:23;;;;;;;12.07;6.90;;;-0.70;99.90;;;;;;5088899;28;20028;-66
2023/01/29 02:57:03;;;;;;;14.98;7.55;;;-0.70;99.90;;;;;;5090270;28;20028;-66
2023/01/29 02:59:41;;;;;;;12.82;6.88;;;-0.70;99.90;;;;;;5090407;28;20092;-66
2023/01/29 03:02:15;;;;;;;10.13;6.57;;;-0.60;99.90;;;;;;5090927;28;20024;-66
2023/01/29 03:04:45;;;;;;;13.18;6.43;;;-0.60;99.90;;;;;;5090049;28;20162;-66
2023/01/29 03:10:10;;;;;;;10.50;7.28;;;-0.60;99.90;;;;;;5087409;28;20035;-66
2023/01/29 03:12:39;;;;;;;10.63;7.18;;;-0.70;99.90;;;;;;5087850;28;20029;-66
2023/01/29 03:15:15;;;;;;;10.30;7.05;;;-0.70;99.90;;;;;;5090232;28;20055;-67
2023/01/29 03:18:03;;;;;;;9.73;6.43;;;-0.70;99.90;;;;;;5096127;28;20104;-66
2023/01/29 03:20:46;;;;;;;11.88;7.35;;;-0.70;99.90;;;;;;5093809;28;20031;-66
2023/01/29 03:23:22;;;;;;;10.07;6.35;;;-0.60;99.90;;;;;;5091459;28;20043;-66
2023/01/29 03:34:23;;;;;;;12.57;6.63;;;-0.70;99.90;;;;;;5083868;28;20035;-66
2023/01/29 03:37:02;;;;;;;10.95;6.30;;;-0.70;99.90;;;;;;5093236;28;20502;-66
2023/01/29 03:39:28;;;;;;;9.70;5.90;;;-0.70;99.90;;;;;;5090767;28;20041;-66
2023/01/29 03:42:04;;;;;;;9.23;5.78;;;-0.70;99.90;;;;;;5090198;28;20456;-66
2023/01/29 03:44:59;;;;;;;8.55;6.13;;;-0.70;99.90;;;;;;5098791;28;20028;-67
2023/01/29 03:47:44;;;;;;;10.85;6.85;;;-0.80;99.90;;;;;;5090941;28;20111;-66
2023/01/29 03:50:37;;;;;;;8.05;6.13;;;-0.80;99.90;;;;;;5094527;28;20031;-66
2023/01/29 03:53:21;;;;;;;8.63;6.20;;;-0.70;99.90;;;;;;5085922;28;20032;-66
2023/01/29 03:56:00;;;;;;;8.88;6.45;;;-0.60;99.90;;;;;;5085808;28;20051;-66
2023/01/29 03:58:38;;;;;;;11.10;7.10;;;-0.70;99.90;;;;;;5094630;28;20438;-66
2023/01/29 04:01:13;;;;;;;12.13;7.03;;;-0.70;99.90;;;;;;5093777;28;20484;-66
2023/01/29 04:03:45;;;;;;;10.82;6.50;;;-0.80;99.90;;;;;;5092403;28;20469;-66
2023/01/29 04:06:11;;;;;;;12.30;6.65;;;-0.80;99.90;;;;;;5095198;28;20024;-67
2023/01/29 04:08:54;;;;;;;10.13;6.43;;;-0.80;99.90;;;;;;5094543;28;20126;-66
2023/01/29 04:11:21;;;;;;;9.18;6.15;;;-0.70;99.90;;;;;;5090236;28;20473;-66
2023/01/29 04:13:47;;;;;;;8.18;5.80;;;-0.70;99.90;;;;;;5094508;28;20112;-66
2023/01/29 04:16:39;;;;;;;10.35;6.90;;;-0.80;99.90;;;;;;5092619;28;20032;-66
2023/01/29 04:19:06;;;;;;;11.13;7.00;;;-0.70;99.90;;;;;;5093478;28;20048;-66
2023/01/29 04:21:33;;;;;;;12.05;6.47;;;-0.70;99.90;;;;;;5101908;28;20085;-67
2023/01/29 04:23:59;;;;;;;10.23;7.10;;;-0.70;99.90;;;;;;5092243;28;20032;-66
2023/01/29 04:26:30;;;;;;;12.43;7.30;;;-0.80;99.90;;;;;;5094865;28;20048;-66
2023/01/29 04:28:58;;;;;;;10.77;7.07;;;-0.70;99.90;;;;;;5090631;28;20024;-65
2023/01/29 04:31:31;;;;;;;10.38;6.95;;;-0.80;99.90;;;;;;5093740;28;20032;-66
2023/01/29 04:34:24;;;;;;;9.70;6.97;;;-0.80;99.90;;;;;;5086019;28;20021;-66
2023/01/29 04:37:14;;;;;;;12.35;7.75;;;-0.80;99.90;;;;;;5092693;28;20032;-66
2023/01/29 04:39:56;;;;;;;11.75;7.28;;;-0.90;99.90;;;;;;5092607;28;20115;-65
2023/01/29 04:42:40;;;;;;;11.10;6.95;;;-0.90;99.90;;;;;;5089193;28;20046;-66
2023/01/29 04:45:45;;;;;;;8.88;6.97;;;-0.70;99.90;;;;;;5092146;28;20024;-66
2023/01/29 04:48:24;;;;;;;9.25;6.50;;;-0.80;99.90;;;;;;5095440;28;20730;-66
2023/01/29 04:51:08;;;;;;;10.90;7.10;;;-0.80;99.90;;;;;;5094337;28;20150;-66
2023/01/29 04:53:42;;;;;;;10.70;6.80;;;-0.90;99.90;;;;;;5093065;28;20122;-66
2023/01/29 04:56:20;;;;;;;13.65;7.30;;;-0.80;99.90;;;;;;5092432;28;20032;-66
2023/01/29 04:58:54;;;;;;;10.32;6.75;;;-0.90;99.90;;;;;;5091829;28;20085;-66
2023/01/29 05:01:24;;;;;;;12.40;6.90;;;-0.80;99.90;;;;;;5105416;28;20035;-67
2023/01/29 05:03:53;;;;;;;8.40;6.07;;;-0.80;99.90;;;;;;5089325;28;20108;-66
2023/01/29 05:06:20;;;;;;;11.38;6.88;;;-0.90;99.90;;;;;;5092825;28;20032;-66
2023/01/29 05:08:47;;;;;;;10.48;6.60;;;-0.90;99.90;;;;;;5092939;28;20028;-66
2023/01/29 05:11:14;;;;;;;10.48;6.68;;;-0.90;99.90;;;;;;5096385;28;20028;-67
2023/01/29 05:13:42;;;;;;;11.82;6.80;;;-0.90;99.90;;;;;;5092585;28;20120;-66
2023/01/29 05:16:14;;;;;;;11.68;7.35;;;-0.90;99.90;;;;;;5092413;28;20035;-66
2023/01/29 05:18:40;;;;;;;11.68;6.97;;;-0.90;99.90;;;;;;5092954;28;20040;-66
2023/01/29 05:21:08;;;;;;;12.23;6.88;;;-0.90;99.90;;;;;;5095678;28;20019;-66
2023/01/29 05:23:34;;;;;;;8.98;6.72;;;-0.90;99.90;;;;;;5094088;28;20031;-66
2023/01/29 05:25:59;;;;;;;12.15;7.28;;;-0.80;99.90;;;;;;5091217;28;20049;-66
2023/01/29 05:28:25;;;;;;;9.02;6.82;;;-0.80;99.90;;;;;;5094898;28;20028;-66
2023/01/29 05:30:53;;;;;;;12.82;7.65;;;-0.90;99.90;;;;;;5091378;28;20086;-66
2023/01/29 05:33:23;;;;;;;9.80;7.25;;;-0.90;99.90;;;;;;5093614;28;20452;-66
2023/01/29 05:35:49;;;;;;;10.90;7.32;;;-0.90;99.90;;;;;;5091497;28;20442;-66
2023/01/29 05:38:16;;;;;;;13.07;7.90;;;-0.90;99.90;;;;;;5092713;28;20040;-66
2023/01/29 05:40:42;;;;;;;11.25;6.90;;;-0.90;99.90;;;;;;5091632;28;20173;-66
2023/01/29 05:43:28;;;;;;;10.85;7.25;;;-0.90;99.90;;;;;;5096953;28;20123;-66
2023/01/29 05:45:58;;;;;;;11.70;7.60;;;-0.90;99.90;;;;;;5087101;28;20063;-66
2023/01/29 05:48:24;;;;;;;;;;;-0.90;99.90;;;;;;5090724;28;20040;-66
2023/01/29 05:50:50;;;;;;;12.25;6.38;;;-1.00;99.90;;;;;;5085309;28;20364;-65
2023/01/29 05:53:16;;;;;;;11.88;7.50;;;-1.00;99.90;;;;;;5091976;28;20020;-66
2023/01/29 05:55:46;;;;;;;13.88;7.85;;;-1.10;99.90;;;;;;5090890;28;20541;-66
2023/01/29 05:58:12;;;;;;;11.88;7.30;;;-1.10;99.90;;;;;;5091675;28;20089;-66
2023/01/29 06:00:37;;;;;;;11.82;8.07;;;-1.10;99.90;;;;;;5091738;28;20035;-66
2023/01/29 06:03:03;;;;;;;11.23;7.07;;;-1.00;99.90;;;;;;5086435;28;20644;-66
2023/01/29 06:05:29;;;;;;;11.60;8.00;;;-1.20;99.90;;;;;;5091553;28;20385;-66
2023/01/29 06:07:54;;;;;;;14.90;8.20;;;-1.20;99.90;;;;;;5091112;28;20060;-66
2023/01/29 06:10:20;;;;;;;10.90;7.32;;;-1.30;99.90;;;;;;5080148;28;20094;-67
2023/01/29 06:12:46;;;;;;;15.27;8.68;;;-1.20;99.90;;;;;;5089237;28;20020;-66
2023/01/29 06:15:14;;;;;;;11.18;7.72;;;-1.30;99.90;;;;;;5090793;28;20446;-66
2023/01/29 06:17:39;;;;;;;10.90;8.27;;;-1.30;99.90;;;;;;5091568;28;20085;-66
2023/01/29 06:20:06;;;;;;;12.63;7.85;;;-1.30;99.90;;;;;;5090611;28;20024;-66
2023/01/29 06:22:32;;;;;;;12.85;7.57;;;-1.30;99.90;;;;;;5091194;28;20040;-66
2023/01/29 06:24:58;;;;;;;11.00;7.53;;;-1.30;99.90;;;;;;5102027;28;20044;-68
2023/01/29 06:27:23;;;;;;;13.45;7.28;;;-1.30;99.90;;;;;;5091640;28;20066;-67
2023/01/29 06:29:49;;;;;;;13.80;8.00;;;-1.30;99.90;;;;;;5090264;28;20035;-66
2023/01/29 06:32:15;;;;;;;11.25;8.27;;;-1.20;99.90;;;;;;5087266;28;20384;-67
2023/01/29 06:34:40;;;;;;;11.07;7.38;;;-1.20;99.90;;;;;;5090962;28;20031;-66
2023/01/29 06:37:06;;;;;;;12.75;7.80;;;-1.10;99.90;;;;;;5093887;28;20414;-67
2023/01/29 06:39:32;;;;;;;11.70;8.52;;;-1.10;99.90;;;;;;5093045;28;20394;-67
2023/01/29 06:41:58;;;;;;;11.40;7.10;;;-1.10;99.90;;;;;;5096223;28;20020;-66
2023/01/29 06:44:24;;;;;;;12.68;7.60;;;-1.20;99.90;;;;;;5099969;28;20432;-66
2023/01/29 06:46:49;;;;;;;13.13;7.95;;;-1.10;99.90;;;;;;5094864;28;20020;-66
2023/01/29 06:49:15;;;;;;;10.57;7.63;;;-1.10;99.90;;;;;;5091184;28;20032;-66
2023/01/29 06:51:41;;;;;;;11.27;8.07;;;-1.10;99.90;;;;;;5090942;28;20028;-66
2023/01/29 06:54:07;;;;;;;13.52;7.78;;;-1.10;99.90;;;;;;5090631;28;20081;-66
2023/01/29 06:56:33;;;;;;;12.73;7.22;;;-1.10;99.90;;;;;;5083438;28;20050;-66
2023/01/29 06:58:59;;;;;;;13.27;7.30;;;-1.10;99.90;;;;;;5090139;28;20032;-66
2023/01/29 07:01:24;;;;;;;10.60;6.60;;;-1.10;99.90;;;;;;5091023;28;20448;-66
2023/01/29 07:03:50;;;;;;;10.13;6.65;;;-1.10;99.90;;;;;;5090291;28;20031;-65
2023/01/29 07:06:17;;;;;;;9.85;6.80;;;-1.10;99.90;;;;;;5091795;28;20024;-66
2023/01/29 07:08:42;;;;;;;11.88;7.30;;;-1.10;99.90;;;;;;5090360;28;20123;-65
2023/01/29 07:11:08;;;;;;;11.02;6.82;;;-1.10;99.90;;;;;;5090856;28;20115;-68
2023/01/29 07:13:34;;;;;;;13.50;7.57;;;-1.10;99.90;;;;;;5090903;28;20024;-66
2023/01/29 07:16:00;;;;;;;12.18;7.05;;;-1.10;99.90;;;;;;5086843;28;20020;-67
2023/01/29 07:18:27;;;;;;;10.50;7.03;;;-1.10;99.90;;;;;;5087662;28;20084;-67
2023/01/29 07:20:53;;;;;;;12.63;7.53;;;-1.20;99.90;;;;;;5085614;28;20042;-67
2023/01/29 07:23:19;;;;;;;12.70;7.22;;;-1.10;99.90;;;;;;5092737;28;20024;-67
2023/01/29 07:25:45;;;;;;;12.85;7.65;;;-1.10;99.90;;;;;;5096438;28;20052;-66
2023/01/29 07:28:10;;;;;;;11.15;7.60;;;-1.10;99.90;;;;;;5094491;28;20028;-67
2023/01/29 07:30:36;;;;;;;11.32;6.88;;;-1.10;99.90;;;;;;5094073;28;20479;-66
2023/01/29 07:33:04;;;;;;;15.20;8.10;;;-1.00;99.90;;;;;;5096853;28;20032;-68
2023/01/29 07:35:30;;;;;;;11.73;7.25;;;-0.90;99.90;;;;;;5094607;28;20103;-69
2023/01/29 07:37:56;;;;;;;14.52;7.82;;;-0.90;99.90;;;;;;5094164;28;20040;-69
2023/01/29 07:40:22;;;;;;;21.33;9.98;;;-0.80;99.90;;;;;;5096329;28;20434;-70
2023/01/29 07:42:48;;;;;;;11.38;7.35;;;-0.80;99.90;;;;;;5092973;28;20028;-67
2023/01/29 07:45:13;;;;;;;11.50;7.65;;;-0.80;99.90;;;;;;5092827;28;20031;-67
2023/01/29 07:47:39;;;;;;;13.48;7.75;;;-0.70;99.90;;;;;;5093685;28;20031;-68
2023/01/29 07:50:05;;;;;;;13.02;7.43;;;-0.70;99.90;;;;;;5092410;28;20028;-67
2023/01/29 07:52:32;;;;;;;9.65;7.00;;;-0.60;99.90;;;;;;5098235;28;20047;-68
2023/01/29 07:54:58;;;;;;;11.77;7.38;;;-0.60;99.90;;;;;;5093862;28;20044;-68
2023/01/29 07:57:24;;;;;;;14.88;7.65;;;-0.60;99.90;;;;;;5095657;28;20452;-67
2023/01/29 07:59:50;;;;;;;11.30;8.00;;;-0.60;99.90;;;;;;5092468;28;20043;-65
2023/01/29 08:02:15;;;;;;;10.60;7.43;;;-0.50;99.90;;;;;;5095335;28;20059;-67
2023/01/29 08:04:41;;;;;;;12.25;7.55;;;-0.50;99.90;;;;;;5094528;28;20046;-67
2023/01/29 08:07:08;;;;;;;12.82;8.27;;;-0.60;99.90;;;;;;5097847;28;20032;-66
2023/01/29 08:09:34;;;;;;;10.13;7.07;;;-0.50;99.90;;;;;;5093098;28;20483;-66
2023/01/29 08:12:00;;;;;;;11.60;7.03;;;-0.50;99.90;;;;;;5092579;28;20020;-66
2023/01/29 08:14:26;;;;;;;10.20;7.50;;;-0.40;99.90;;;;;;5092875;28;20077;-66
2023/01/29 08:16:51;;;;;;;9.80;6.93;;;-0.40;99.90;;;;;;5092141;28;20051;-66
2023/01/29 08:19:17;;;;;;;12.07;7.50;;;-0.40;99.90;;;;;;5089664;28;20048;-66
2023/01/29 08:21:42;;;;;;;10.52;7.40;;;-0.40;99.90;;;;;;5095158;28;20020;-66
2023/01/29 08:24:08;;;;;;;13.13;7.15;;;-0.40;99.90;;;;;;5095677;28;20020;-66
2023/01/29 08:26:34;;;;;;;13.32;7.30;;;-0.40;99.90;;;;;;5093364;28;20052;-66
2023/01/29 08:28:59;;;;;;;11.98;6.95;;;-0.30;99.90;;;;;;5092837;28;20039;-67
2023/01/29 08:31:25;;;;;;;11.35;7.25;;;-0.30;99.90;;;;;;5093848;28;20389;-67
2023/01/29 08:33:54;;;;;;;10.23;6.95;;;-0.10;99.90;;;;;;5096264;28;20028;-67
2023/01/29 08:36:20;;;;;;;12.20;7.45;;;-0.10;99.90;;;;;;5094054;28;20381;-67
2023/01/29 08:38:45;;;;;;;14.23;7.60;;;-0.10;99.90;;;;;;5086341;28;20036;-66
2023/01/29 08:41:11;;;;;;;12.15;7.65;;;0.00;99.90;;;;;;5092051;28;20142;-68
2023/01/29 08:43:37;;;;;;;11.52;6.90;;;0.00;99.90;;;;;;5092149;28;20020;-66
2023/01/29 08:46:06;;;;;;;11.77;7.30;;;0.10;99.90;;;;;;5092476;28;20035;-70
2023/01/29 08:48:32;;;;;;;9.93;7.00;;;0.00;99.90;;;;;;5091894;28;20492;-73
2023/01/29 08:50:59;;;;;;;12.32;7.57;;;0.00;99.90;;;;;;5089291;28;20039;-79
2023/01/29 08:53:25;;;;;;;10.65;6.80;;;0.00;99.90;;;;;;5086936;28;20024;-76
2023/01/29 08:55:51;;;;;;;11.80;7.75;;;0.10;99.90;;;;;;5087576;28;20036;-69
2023/01/29 08:58:17;;;;;;;9.23;6.82;;;0.10;99.90;;;;;;5090448;28;20036;-68
2023/01/29 09:00:43;;;;;;;11.73;7.75;;;0.10;99.90;;;;;;5089031;28;20047;-68
2023/01/29 09:03:08;;;;;;;11.55;7.78;;;0.10;99.90;;;;;;5089623;28;20077;-71
2023/01/29 09:05:36;;;;;;;12.48;7.70;;;0.20;99.90;;;;;;5091216;28;20039;-69
2023/01/29 09:08:02;;;;;;;12.15;7.68;;;0.20;99.90;;;;;;5088088;28;20032;-72
2023/01/29 09:10:27;;;;;;;10.82;7.43;;;0.20;99.90;;;;;;5086452;28;20114;-68
2023/01/29 09:12:53;;;;;;;15.55;7.57;;;0.20;99.90;;;;;;5090615;28;20030;-69
2023/01/29 09:15:18;;;;;;;10.85;7.85;;;0.30;99.90;;;;;;5093559;28;20490;-67
2023/01/29 09:17:44;;;;;;;13.82;8.20;;;0.30;99.90;;;;;;5091376;28;20040;-68
2023/01/29 09:20:10;;;;;;;11.32;8.15;;;0.40;99.90;;;;;;5094703;28;20032;-68
2023/01/29 09:22:36;;;;;;;10.55;7.28;;;0.40;99.90;;;;;;5092331;28;20028;-69
2023/01/29 09:25:01;;;;;;;13.15;8.23;;;0.50;99.90;;;;;;5090096;28;20109;-69
2023/01/29 09:27:27;;;;;;;13.60;7.80;;;0.50;99.90;;;;;;5071241;28;20024;-69
2023/01/29 09:29:53;;;;;;;14.20;8.73;;;0.60;99.90;;;;;;5073691;28;20013;-69
2023/01/29 09:32:18;;;;;;;14.95;8.40;;;0.60;99.90;;;;;;5070960;28;20029;-67
2023/01/29 09:34:44;;;;;;;14.52;8.25;;;0.70;99.90;;;;;;5070962;28;20035;-67
2023/01/29 09:37:10;;;;;;;12.30;8.00;;;0.70;99.90;;;;;;5070191;28;20385;-68
2023/01/29 09:39:35;;;;;;;16.02;8.63;;;0.80;99.90;;;;;;5073904;28;20036;-68
2023/01/29 09:42:18;;;;;;;15.38;9.35;;;1.60;99.90;;;;;;5070291;28;20051;-68
2023/01/29 09:44:56;;;;;;;15.90;8.77;;;0.20;99.90;;;;;;5071668;28;20032;-68
2023/01/29 09:47:25;;;;;;;13.43;8.50;;;1.00;99.90;;;;;;5072973;28;20028;-68
2023/01/29 09:50:07;;;;;;;14.57;8.87;;;1.00;99.90;;;;;;5069690;28;20111;-69
2023/01/29 09:52:48;;;;;;;14.07;8.85;;;1.00;99.90;;;;;;5070238;28;20114;-68
2023/01/29 09:55:22;;;;;;;11.10;8.43;;;1.00;99.90;;;;;;5074096;28;20702;-69
2023/01/29 09:57:56;;;;;;;11.73;8.18;;;1.10;99.90;;;;;;5069362;28;20024;-69
2023/01/29 10:00:23;;;;;;;11.55;8.38;;;1.10;99.90;;;;;;5074535;28;20032;-69
2023/01/29 10:03:07;;;;;;;11.52;8.95;;;1.20;99.90;;;;;;5083552;28;20104;-69
2023/01/29 10:05:41;;;;;;;14.77;8.40;;;1.30;99.90;;;;;;5069777;28;20040;-69
2023/01/29 10:08:46;;;;;;;12.65;8.85;;;1.40;99.90;;;;;;5070150;28;20039;-73
2023/01/29 10:11:33;;;;;;;16.63;9.10;;;1.60;99.90;;;;;;5073432;28;20586;-69
2023/01/29 10:14:08;;;;;;;10.50;7.80;;;1.80;99.90;;;;;;5069248;28;20052;-68
2023/01/29 10:16:48;;;;;;;11.02;8.25;;;2.10;99.90;;;;;;5071683;28;20024;-69
2023/01/29 10:19:25;;;;;;;11.88;8.65;;;2.40;99.90;;;;;;5069864;28;20088;-69
2023/01/29 10:22:35;;;;;;;16.05;8.50;;;2.50;99.90;;;;;;5069421;28;20111;-69
2023/01/29 10:25:21;;;;;;;14.10;9.13;;;2.60;99.90;;;;;;5045891;28;20120;-68
2023/01/29 10:27:51;;;;;;;14.20;9.50;;;2.70;99.90;;;;;;5068433;28;20028;-68
2023/01/29 10:30:39;;;;;;;10.73;8.77;;;2.80;99.90;;;;;;5073290;28;20047;-69
2023/01/29 10:33:16;;;;;;;9.70;8.20;;;2.90;99.90;;;;;;5068401;28;20047;-68
2023/01/29 10:35:55;;;;;;;18.40;8.70;;;2.80;99.90;;;;;;5069348;28;20455;-68
2023/01/29 10:38:45;;;;;;;14.00;9.38;;;2.70;99.90;;;;;;5070166;28;20039;-69
2023/01/29 10:41:18;;;;;;;10.98;8.48;;;2.60;99.90;;;;;;5066671;28;20025;-66
2023/01/29 10:44:03;;;;;;;12.48;9.20;;;2.60;99.90;;;;;;5068378;28;20082;-73
2023/01/29 10:46:29;;;;;;;11.38;8.25;;;2.60;99.90;;;;;;5072583;28;20027;-73
2023/01/29 10:49:32;;;;;;;9.95;7.93;;;2.70;99.90;;;;;;5061440;28;20032;-75
2023/01/29 10:52:17;;;;;;;12.68;8.40;;;2.70;99.90;;;;;;5065392;28;20114;-72
2023/01/29 10:55:07;;;;;;;10.18;7.88;;;2.70;99.90;;;;;;5066474;28;20025;-74
2023/01/29 10:58:00;;;;;;;9.77;8.02;;;2.60;99.90;;;;;;5048956;28;20036;-73
2023/01/29 11:00:30;;;;;;;10.43;8.13;;;2.60;99.90;;;;;;5065610;28;20033;-70
2023/01/29 11:02:55;;;;;;;13.68;8.88;;;2.60;99.90;;;;;;5049938;28;20024;-69
2023/01/29 11:05:33;;;;;;;12.35;8.52;;;2.70;99.90;;;;;;5071116;28;20400;-68
2023/01/29 11:08:36;;;;;;;10.18;8.20;;;2.70;99.90;;;;;;5068140;28;20112;-68
2023/01/29 11:11:08;;;;;;;10.43;8.45;;;2.70;99.90;;;;;;5025099;28;20497;-68
2023/01/29 11:13:51;;;;;;;10.80;8.65;;;2.80;99.90;;;;;;5070039;28;20028;-68
2023/01/29 11:16:17;;;;;;;11.73;8.60;;;2.80;99.90;;;;;;5069620;28;20043;-76
2023/01/29 11:18:57;;;;;;;12.18;8.50;;;2.80;99.90;;;;;;5068071;28;20045;-74
2023/01/29 11:21:25;;;;;;;13.75;8.70;;;2.90;99.90;;;;;;5070213;28;20033;-71
2023/01/29 11:24:06;;;;;;;12.82;9.52;;;3.00;99.90;;;;;;5070111;28;20060;-69
2023/01/29 11:26:36;;;;;;;13.05;9.35;;;3.10;99.90;;;;;;5071755;28;20044;-74
2023/01/29 11:29:02;;;;;;;11.73;9.38;;;3.10;99.90;;;;;;5053569;28;20651;-74
2023/01/29 11:31:38;;;;;;;11.80;9.68;;;3.20;99.90;;;;;;5070627;28;20025;-74
2023/01/29 11:34:28;;;;;;;11.38;9.52;;;3.30;99.90;;;;;;5069897;28;20419;-73
2023/01/29 11:37:00;;;;;;;15.13;10.60;;;3.30;99.90;;;;;;5064917;28;20025;-78
2023/01/29 11:39:28;;;;;;;15.45;9.85;;;4.00;99.90;;;;;;5071200;28;20041;-72
2023/01/29 11:42:03;;;;;;;13.32;8.85;;;3.30;99.90;;;;;;5069789;28;20036;-73
2023/01/29 11:44:38;;;;;;;12.35;8.68;;;3.30;99.90;;;;;;5070785;28;20033;-72
2023/01/29 11:47:28;;;;;;;13.15;9.43;;;;;;;;;;5069930;28;20033;-74
2023/01/29 11:49:57;;;;;;;12.50;8.70;;;;;;;;;;5083127;28;20528;-67
2023/01/29 11:52:25;;;;;;;12.02;9.48;;;;;;;;;;5069842;28;20489;-72
2023/01/29 11:55:04;;;;;;;12.50;8.95;;;;;;;;;;5068217;28;20103;-71
2023/01/29 11:57:36;;;;;;;12.00;9.27;;;;;;;;;;5070657;28;20078;-71
2023/01/29 12:00:05;;;;;;;10.52;8.63;;;;;;;;;;5066909;28;20036;-71
2023/01/29 12:02:37;;;;;;;11.10;8.32;;;;;;;;;;5063437;28;20051;-69
2023/01/29 12:05:08;;;;;;;9.43;7.70;;;;;;;;;;5070786;28;20832;-70
2023/01/29 12:07:43;;;;;;;11.82;8.80;;;;;;;;;;5089956;28;20054;-69
2023/01/29 12:10:32;;;;;;;11.52;8.77;;;;;;;;;;5092366;28;20064;-71
2023/01/29 12:13:19;;;;;;;12.43;8.98;;;;;;;;;;5093109;28;20473;-69
2023/01/29 12:15:49;;;;;;;13.50;8.48;;;;;;;;;;5074200;28;20491;-69
2023/01/29 12:18:26;;;;;;;11.18;8.63;;;;;;;;;;5076521;28;20033;-68
2023/01/29 12:20:58;;;;;;;14.88;8.80;;;;;;;;;;5077008;28;20091;-69
2023/01/29 12:23:47;;;;;;;11.52;8.52;;;;;;;;;;5074354;28;20047;-69
2023/01/29 12:26:18;;;;;;;15.18;8.77;;;;;;;;;;5083120;28;20075;-71
2023/01/29 12:29:05;;;;;;;10.10;8.10;;;3.00;99.90;;;;;;5105790;28;20028;-70
2023/01/29 12:31:45;;;;;;;14.05;8.57;;;2.80;99.90;;;;;;5092518;28;20039;-69
2023/01/29 12:34:34;;;;;;;13.43;8.32;;;2.80;99.90;;;;;;5096006;28;20019;-69
2023/01/29 12:37:20;;;;;;;13.90;9.70;;;2.90;99.90;;;;;;5092871;28;20031;-72
2023/01/29 12:39:47;;;;;;;12.80;8.65;;;3.00;99.90;;;;;;5092750;28;20045;-68
2023/01/29 12:42:21;;;;;;;13.43;8.75;;;3.00;99.90;;;;;;5085495;28;20032;-68
2023/01/29 12:45:09;;;;;;;13.65;9.30;;;3.00;99.90;;;;;;5100719;28;20023;-70
2023/01/29 12:47:40;;;;;;;12.73;9.73;;;3.00;99.90;;;;;;5107926;28;20031;-71
2023/01/29 12:50:28;;;;;;;16.17;10.13;;;3.10;99.90;;;;;;5088127;28;20484;-69
2023/01/29 12:53:01;;;;;;;11.60;9.05;;;3.20;99.90;;;;;;5095050;28;20111;-66
2023/01/29 12:55:41;;;;;;;13.85;10.07;;;3.20;99.90;;;;;;5096766;28;20077;-67
2023/01/29 12:58:22;;;;;;;11.88;9.50;;;3.30;99.90;;;;;;5091364;28;20209;-68
2023/01/29 13:00:52;;;;;;;12.05;9.02;;;3.40;99.90;;;;;;5092454;28;20096;-68
2023/01/29 13:03:45;;;;;;;12.07;8.52;;;3.40;99.90;;;;;;5101337;28;20035;-67
2023/01/29 13:06:19;;;;;;;15.45;9.88;;;3.40;99.90;;;;;;5092010;28;20123;-71
2023/01/29 13:08:55;;;;;;;13.07;9.45;;;3.50;99.90;;;;;;5088166;28;20127;-71
2023/01/29 13:11:39;;;;;;;13.23;9.70;;;3.60;99.90;;;;;;5100153;28;20052;-72
2023/01/29 13:14:18;;;;;;;13.23;10.02;;;3.70;99.90;;;;;;5092350;28;20182;-73
2023/01/29 13:16:48;;;;;;;14.13;10.15;;;3.80;99.90;;;;;;5085711;28;20460;-78
2023/01/29 13:19:26;;;;;;;11.27;9.13;;;4.00;99.90;;;;;;5093160;28;20040;-77
2023/01/29 13:21:55;;;;;;;14.35;8.73;;;4.00;99.90;;;;;;5092380;28;20031;-76
2023/01/29 13:24:24;;;;;;;13.80;8.93;;;4.10;99.90;;;;;;5092633;28;20020;-75
2023/01/29 13:26:50;;;;;;;12.98;8.85;;;4.00;99.90;;;;;;5091559;28;20048;-70
2023/01/29 13:29:24;;;;;;;12.48;9.55;;;3.90;99.90;;;;;;5091284;28;20115;-80
2023/01/29 13:31:52;;;;;;;11.27;8.77;;;3.90;99.90;;;;;;5091869;28;20035;-67
2023/01/29 13:34:27;;;;;;;13.73;8.32;;;3.90;99.90;;;;;;5092451;28;20047;-70
2023/01/29 13:36:59;;;;;;;12.27;8.70;;;3.70;99.90;;;;;;5101320;28;20038;-68
2023/01/29 13:39:32;;;;;;;12.88;8.10;;;3.70;99.90;;;;;;5099549;28;20135;-69